createdAt,value
2017-01-12T00:00:48.604Z,0
2017-01-12T00:01:48.589Z,0
2017-01-12T00:02:48.574Z,0
2017-01-12T00:03:48.568Z,0
2017-01-12T00:04:48.549Z,0
2017-01-12T00:05:48.540Z,0
2017-01-12T00:06:48.527Z,0
2017-01-12T00:07:48.524Z,0
2017-01-12T00:08:48.503Z,0
2017-01-12T00:09:48.501Z,0
2017-01-12T00:10:48.479Z,0
2017-01-12T00:11:48.471Z,0
2017-01-12T00:12:48.452Z,0
2017-01-12T00:13:48.448Z,0
2017-01-12T00:14:48.432Z,0
2017-01-12T00:15:48.424Z,0
2017-01-12T00:16:48.402Z,0
2017-01-12T00:17:48.393Z,0
2017-01-12T00:18:48.382Z,0
2017-01-12T00:19:48.389Z,0
2017-01-12T00:20:48.357Z,0
2017-01-12T00:21:48.344Z,0
2017-01-12T00:22:48.332Z,0
2017-01-12T00:23:48.313Z,0
2017-01-12T00:24:48.695Z,0
2017-01-12T00:25:48.293Z,0
2017-01-12T00:26:48.281Z,0
2017-01-12T00:27:48.653Z,0
2017-01-12T00:28:48.262Z,0
2017-01-12T00:29:48.250Z,0
2017-01-12T00:30:48.241Z,0
2017-01-12T00:31:48.221Z,0
2017-01-12T00:32:48.206Z,0
2017-01-12T00:33:48.198Z,0
2017-01-12T00:34:48.183Z,0
2017-01-12T00:35:48.180Z,0
2017-01-12T00:36:48.158Z,0
2017-01-12T00:37:48.155Z,0
2017-01-12T00:38:48.136Z,0
2017-01-12T00:39:48.124Z,0
2017-01-12T00:40:48.110Z,0
2017-01-12T00:41:48.102Z,0
2017-01-12T00:42:48.093Z,0
2017-01-12T00:43:48.090Z,0
2017-01-12T00:44:48.060Z,0
2017-01-12T00:45:48.057Z,0
2017-01-12T00:46:48.069Z,0
2017-01-12T00:47:48.037Z,0
2017-01-12T00:48:48.016Z,0
2017-01-12T00:49:48.002Z,0
2017-01-12T00:50:47.988Z,0
2017-01-12T00:51:47.978Z,0
2017-01-12T00:52:47.966Z,0
2017-01-12T00:53:47.952Z,0
2017-01-12T00:54:47.939Z,0
2017-01-12T00:55:47.933Z,0
2017-01-12T00:56:47.919Z,0
2017-01-12T00:57:47.907Z,0
2017-01-12T00:58:47.895Z,0
2017-01-12T00:59:47.882Z,0
2017-01-12T01:00:47.869Z,0
2017-01-12T01:01:48.243Z,0
2017-01-12T01:02:47.847Z,0
2017-01-12T01:03:47.831Z,0
2017-01-12T01:04:47.820Z,0
2017-01-12T01:05:47.805Z,0
2017-01-12T01:06:47.794Z,0
2017-01-12T01:07:47.786Z,0
2017-01-12T01:08:47.774Z,0
2017-01-12T01:09:47.763Z,0
2017-01-12T01:10:47.745Z,0
2017-01-12T01:11:47.735Z,0
2017-01-12T01:12:47.727Z,0
2017-01-12T01:13:47.711Z,0
2017-01-12T01:14:47.701Z,0
2017-01-12T01:15:47.683Z,0
2017-01-12T01:16:47.675Z,0
2017-01-12T01:17:47.658Z,0
2017-01-12T01:18:47.650Z,0
2017-01-12T01:19:47.637Z,0
2017-01-12T01:20:47.624Z,0
2017-01-12T01:21:47.615Z,0
2017-01-12T01:22:47.600Z,0
2017-01-12T01:23:47.590Z,0
2017-01-12T01:24:47.574Z,0
2017-01-12T01:25:47.950Z,0
2017-01-12T01:26:47.550Z,0
2017-01-12T01:27:47.537Z,0
2017-01-12T01:28:47.531Z,0
2017-01-12T01:29:47.901Z,0
2017-01-12T01:30:47.502Z,0
2017-01-12T01:31:47.492Z,0
2017-01-12T01:32:47.488Z,0
2017-01-12T01:33:47.466Z,0
2017-01-12T01:34:47.845Z,0
2017-01-12T01:35:47.448Z,0
2017-01-12T01:36:47.432Z,0
2017-01-12T01:37:47.418Z,0
2017-01-12T01:38:47.416Z,0
2017-01-12T01:39:47.394Z,0
2017-01-12T01:40:47.379Z,0
2017-01-12T01:41:47.370Z,0
2017-01-12T01:42:47.357Z,0
2017-01-12T01:43:47.351Z,0
2017-01-12T01:44:47.336Z,0
2017-01-12T01:45:47.321Z,0
2017-01-12T01:46:47.307Z,0
2017-01-12T01:47:47.299Z,0
2017-01-12T01:48:47.291Z,0
2017-01-12T01:49:47.286Z,0
2017-01-12T01:50:47.263Z,0
2017-01-12T01:51:47.252Z,0
2017-01-12T01:52:47.242Z,0
2017-01-12T01:53:47.228Z,0
2017-01-12T01:54:47.216Z,0
2017-01-12T01:55:47.207Z,0
2017-01-12T01:56:47.189Z,0
2017-01-12T01:57:47.183Z,0
2017-01-12T01:58:47.169Z,0
2017-01-12T01:59:47.157Z,0
2017-01-12T02:00:47.143Z,0
2017-01-12T02:01:47.135Z,0
2017-01-12T02:02:47.120Z,0
2017-01-12T02:03:47.114Z,0
2017-01-12T02:04:47.101Z,0
2017-01-12T02:05:47.085Z,0
2017-01-12T02:06:47.073Z,0
2017-01-12T02:07:47.062Z,0
2017-01-12T02:08:47.048Z,0
2017-01-12T02:09:47.036Z,0
2017-01-12T02:10:47.029Z,0
2017-01-12T02:11:47.016Z,0
2017-01-12T02:12:46.998Z,0
2017-01-12T02:13:46.995Z,0
2017-01-12T02:14:46.977Z,0
2017-01-12T02:15:46.966Z,0
2017-01-12T02:16:47.340Z,0
2017-01-12T02:17:46.948Z,0
2017-01-12T02:18:46.933Z,0
2017-01-12T02:19:46.920Z,0
2017-01-12T02:20:46.911Z,0
2017-01-12T02:21:46.895Z,0
2017-01-12T02:22:46.889Z,0
2017-01-12T02:23:46.875Z,0
2017-01-12T02:24:46.884Z,0
2017-01-12T02:25:46.848Z,0
2017-01-12T02:26:46.833Z,0
2017-01-12T02:27:46.822Z,0
2017-01-12T02:28:46.810Z,0
2017-01-12T02:29:46.802Z,0
2017-01-12T02:30:46.787Z,0
2017-01-12T02:31:46.778Z,0
2017-01-12T02:32:46.762Z,0
2017-01-12T02:33:46.750Z,0
2017-01-12T02:34:46.741Z,0
2017-01-12T02:35:46.722Z,0
2017-01-12T02:36:46.715Z,0
2017-01-12T02:37:46.706Z,0
2017-01-12T02:38:46.689Z,0
2017-01-12T02:39:46.681Z,0
2017-01-12T02:40:46.671Z,0
2017-01-12T02:41:46.653Z,0
2017-01-12T02:42:46.644Z,0
2017-01-12T02:43:46.629Z,0
2017-01-12T02:44:46.620Z,0
2017-01-12T02:45:46.605Z,0
2017-01-12T02:46:46.990Z,0
2017-01-12T02:47:46.588Z,0
2017-01-12T02:48:46.573Z,0
2017-01-12T02:49:46.559Z,0
2017-01-12T02:50:46.550Z,0
2017-01-12T02:51:46.530Z,0
2017-01-12T02:52:46.907Z,0
2017-01-12T02:53:46.534Z,0
2017-01-12T02:54:46.494Z,0
2017-01-12T02:55:46.483Z,0
2017-01-12T02:56:46.478Z,0
2017-01-12T02:57:46.459Z,0
2017-01-12T02:58:46.450Z,0
2017-01-12T02:59:46.435Z,0
2017-01-12T03:00:46.424Z,0
2017-01-12T03:01:46.418Z,0
2017-01-12T03:02:46.399Z,0
2017-01-12T03:03:46.391Z,0
2017-01-12T03:04:46.376Z,0
2017-01-12T03:05:46.365Z,0
2017-01-12T03:06:46.355Z,0
2017-01-12T03:07:46.336Z,0
2017-01-12T03:08:46.333Z,0
2017-01-12T03:09:46.311Z,0
2017-01-12T03:10:46.304Z,0
2017-01-12T03:11:46.320Z,0
2017-01-12T03:12:46.277Z,0
2017-01-12T03:13:46.263Z,0
2017-01-12T03:14:46.285Z,0
2017-01-12T03:15:46.246Z,0
2017-01-12T03:16:46.229Z,0
2017-01-12T03:17:46.216Z,0
2017-01-12T03:18:46.205Z,0
2017-01-12T03:19:46.189Z,0
2017-01-12T03:20:46.179Z,0
2017-01-12T03:21:46.172Z,0
2017-01-12T03:22:46.159Z,0
2017-01-12T03:23:46.142Z,0
2017-01-12T03:24:46.532Z,0
2017-01-12T03:25:46.122Z,0
2017-01-12T03:26:46.104Z,0
2017-01-12T03:27:46.094Z,0
2017-01-12T03:28:46.085Z,0
2017-01-12T03:29:46.072Z,0
2017-01-12T03:30:46.059Z,0
2017-01-12T03:31:46.043Z,0
2017-01-12T03:32:46.053Z,0
2017-01-12T03:33:46.024Z,0
2017-01-12T03:34:46.010Z,0
2017-01-12T03:35:45.997Z,0
2017-01-12T03:36:45.991Z,0
2017-01-12T03:37:45.971Z,0
2017-01-12T03:38:45.961Z,0
2017-01-12T03:39:45.946Z,0
2017-01-12T03:40:45.939Z,0
2017-01-12T03:41:45.930Z,0
2017-01-12T03:42:45.916Z,0
2017-01-12T03:43:45.901Z,0
2017-01-12T03:44:45.886Z,0
2017-01-12T03:45:46.263Z,0
2017-01-12T03:46:45.865Z,0
2017-01-12T03:47:45.850Z,0
2017-01-12T03:48:45.840Z,0
2017-01-12T03:49:45.828Z,0
2017-01-12T03:50:45.813Z,0
2017-01-12T03:51:45.803Z,0
2017-01-12T03:52:45.814Z,0
2017-01-12T03:53:45.780Z,0
2017-01-12T03:54:45.765Z,0
2017-01-12T03:55:45.757Z,0
2017-01-12T03:56:45.767Z,0
2017-01-12T03:57:45.724Z,0
2017-01-12T03:58:45.716Z,0
2017-01-12T03:59:45.708Z,0
2017-01-12T04:00:45.694Z,0
2017-01-12T04:01:45.679Z,0
2017-01-12T04:02:45.664Z,0
2017-01-12T04:03:46.040Z,0
2017-01-12T04:04:45.645Z,0
2017-01-12T04:05:45.640Z,0
2017-01-12T04:06:45.615Z,0
2017-01-12T04:07:45.616Z,0
2017-01-12T04:08:45.596Z,0
2017-01-12T04:09:45.966Z,0
2017-01-12T04:10:45.563Z,0
2017-01-12T04:11:45.555Z,0
2017-01-12T04:12:45.545Z,0
2017-01-12T04:13:45.528Z,0
2017-01-12T04:14:45.909Z,0
2017-01-12T04:15:45.505Z,0
2017-01-12T04:16:45.500Z,0
2017-01-12T04:17:45.510Z,0
2017-01-12T04:18:45.470Z,0
2017-01-12T04:19:45.466Z,0
2017-01-12T04:20:45.451Z,0
2017-01-12T04:21:45.429Z,0
2017-01-12T04:22:45.429Z,0
2017-01-12T04:23:45.428Z,0
2017-01-12T04:24:45.403Z,0
2017-01-12T04:25:45.382Z,0
2017-01-12T04:26:45.371Z,0
2017-01-12T04:27:45.363Z,0
2017-01-12T04:28:45.375Z,0
2017-01-12T04:29:45.337Z,0
2017-01-12T04:30:45.321Z,0
2017-01-12T04:31:45.308Z,0
2017-01-12T04:32:45.300Z,0
2017-01-12T04:33:45.706Z,0
2017-01-12T04:34:45.273Z,0
2017-01-12T04:35:45.267Z,0
2017-01-12T04:36:45.246Z,0
2017-01-12T04:37:45.236Z,0
2017-01-12T04:38:45.222Z,0
2017-01-12T04:39:45.209Z,0
2017-01-12T04:40:45.205Z,0
2017-01-12T04:41:45.184Z,0
2017-01-12T04:42:45.183Z,0
2017-01-12T04:43:45.159Z,0
2017-01-12T04:44:45.146Z,0
2017-01-12T04:45:45.137Z,0
2017-01-12T04:46:45.126Z,0
2017-01-12T04:47:45.114Z,0
2017-01-12T04:48:45.099Z,0
2017-01-12T04:49:45.089Z,0
2017-01-12T04:50:45.071Z,0
2017-01-12T04:51:45.075Z,0
2017-01-12T04:52:45.049Z,0
2017-01-12T04:53:45.039Z,0
2017-01-12T04:54:45.019Z,0
2017-01-12T04:55:45.014Z,0
2017-01-12T04:56:45.011Z,0
2017-01-12T04:57:44.985Z,0
2017-01-12T04:58:45.365Z,0
2017-01-12T04:59:44.961Z,0
2017-01-12T05:00:44.956Z,0
2017-01-12T05:01:44.939Z,0
2017-01-12T05:02:44.925Z,0
2017-01-12T05:03:44.914Z,0
2017-01-12T05:04:44.903Z,0
2017-01-12T05:05:44.887Z,0
2017-01-12T05:06:44.876Z,0
2017-01-12T05:07:44.861Z,0
2017-01-12T05:08:44.848Z,0
2017-01-12T05:09:44.846Z,0
2017-01-12T05:10:44.826Z,0
2017-01-12T05:11:44.811Z,0
2017-01-12T05:12:44.804Z,0
2017-01-12T05:13:44.790Z,0
2017-01-12T05:14:44.786Z,0
2017-01-12T05:15:44.764Z,0
2017-01-12T05:16:44.752Z,0
2017-01-12T05:17:44.736Z,0
2017-01-12T05:18:44.733Z,0
2017-01-12T05:19:44.711Z,0
2017-01-12T05:20:44.707Z,0
2017-01-12T05:21:44.694Z,0
2017-01-12T05:22:44.676Z,0
2017-01-12T05:23:44.666Z,0
2017-01-12T05:24:44.655Z,0
2017-01-12T05:25:44.642Z,0
2017-01-12T05:26:44.627Z,0
2017-01-12T05:27:44.623Z,0
2017-01-12T05:28:44.604Z,0
2017-01-12T05:29:44.593Z,0
2017-01-12T05:30:44.583Z,0
2017-01-12T05:31:44.581Z,0
2017-01-12T05:32:44.555Z,0
2017-01-12T05:33:44.573Z,0
2017-01-12T05:34:44.529Z,0
2017-01-12T05:35:44.903Z,0
2017-01-12T05:36:44.505Z,0
2017-01-12T05:37:44.880Z,0
2017-01-12T05:38:44.480Z,0
2017-01-12T05:39:44.474Z,0
2017-01-12T05:40:44.456Z,0
2017-01-12T05:41:44.444Z,0
2017-01-12T05:42:44.433Z,0
2017-01-12T05:43:44.421Z,0
2017-01-12T05:44:44.409Z,0
2017-01-12T05:45:44.395Z,0
2017-01-12T05:46:44.381Z,0
2017-01-12T05:47:44.368Z,0
2017-01-12T05:48:44.357Z,0
2017-01-12T05:49:44.344Z,0
2017-01-12T05:50:44.329Z,0
2017-01-12T05:51:44.319Z,0
2017-01-12T05:52:44.307Z,0
2017-01-12T05:53:44.292Z,0
2017-01-12T05:54:44.314Z,0
2017-01-12T05:55:44.273Z,0
2017-01-12T05:56:44.256Z,0
2017-01-12T05:57:44.242Z,0
2017-01-12T05:58:44.230Z,0
2017-01-12T05:59:44.218Z,0
2017-01-12T06:00:44.203Z,0
2017-01-12T06:01:44.197Z,0
2017-01-12T06:02:44.187Z,0
2017-01-12T06:03:44.171Z,0
2017-01-12T06:04:44.164Z,0
2017-01-12T06:05:44.146Z,0
2017-01-12T06:06:44.131Z,0
2017-01-12T06:07:44.128Z,0
2017-01-12T06:08:44.109Z,0
2017-01-12T06:09:44.097Z,0
2017-01-12T06:10:44.082Z,0
2017-01-12T06:11:44.070Z,0
2017-01-12T06:12:44.062Z,0
2017-01-12T06:13:44.047Z,0
2017-01-12T06:14:44.419Z,0
2017-01-12T06:15:44.021Z,0
2017-01-12T06:16:44.017Z,0
2017-01-12T06:17:44.004Z,0
2017-01-12T06:18:43.982Z,0
2017-01-12T06:19:43.973Z,0
2017-01-12T06:20:43.961Z,0
2017-01-12T06:21:43.948Z,0
2017-01-12T06:22:43.939Z,0
2017-01-12T06:23:43.924Z,0
2017-01-12T06:24:43.912Z,0
2017-01-12T06:25:43.897Z,0
2017-01-12T06:26:43.886Z,0
2017-01-12T06:27:43.874Z,0
2017-01-12T06:28:43.861Z,0
2017-01-12T06:29:43.845Z,0
2017-01-12T06:30:43.833Z,0
2017-01-12T06:31:43.826Z,0
2017-01-12T06:32:43.810Z,0
2017-01-12T06:33:43.796Z,0
2017-01-12T06:34:43.788Z,0
2017-01-12T06:35:43.773Z,0
2017-01-12T06:36:43.760Z,0
2017-01-12T06:37:43.748Z,0
2017-01-12T06:38:43.742Z,0
2017-01-12T06:39:43.757Z,0
2017-01-12T06:40:43.710Z,0
2017-01-12T06:41:43.726Z,0
2017-01-12T06:42:43.691Z,0
2017-01-12T06:43:43.672Z,0
2017-01-12T06:44:43.683Z,0
2017-01-12T06:45:44.035Z,0
2017-01-12T06:46:43.636Z,0
2017-01-12T06:47:43.619Z,0
2017-01-12T06:48:43.609Z,0
2017-01-12T06:49:43.590Z,0
2017-01-12T06:50:43.584Z,0
2017-01-12T06:51:43.570Z,0
2017-01-12T06:52:43.551Z,0
2017-01-12T06:53:43.539Z,0
2017-01-12T06:54:43.551Z,0
2017-01-12T06:55:43.898Z,0
2017-01-12T06:56:43.501Z,0
2017-01-12T06:57:43.486Z,0
2017-01-12T06:58:43.472Z,5
2017-01-12T06:59:43.460Z,5
2017-01-12T07:00:43.453Z,5
2017-01-12T07:01:43.437Z,5
2017-01-12T07:02:43.425Z,5
2017-01-12T07:03:43.411Z,5
2017-01-12T07:04:43.397Z,5
2017-01-12T07:05:43.379Z,5
2017-01-12T07:06:43.369Z,10
2017-01-12T07:07:43.359Z,10
2017-01-12T07:08:43.729Z,10
2017-01-12T07:09:43.325Z,10
2017-01-12T07:10:43.323Z,10
2017-01-12T07:11:43.302Z,10
2017-01-12T07:12:43.675Z,10
2017-01-12T07:13:43.272Z,15
2017-01-12T07:14:43.260Z,15
2017-01-12T07:15:43.276Z,15
2017-01-12T07:16:43.239Z,15
2017-01-12T07:17:43.224Z,15
2017-01-12T07:18:43.205Z,20
2017-01-12T07:19:43.204Z,20
2017-01-12T07:20:43.208Z,20
2017-01-12T07:21:43.166Z,25
2017-01-12T07:22:43.158Z,25
2017-01-12T07:23:43.144Z,20
2017-01-12T07:24:43.134Z,20
2017-01-12T07:25:43.127Z,20
2017-01-12T07:26:43.126Z,25
2017-01-12T07:27:43.091Z,20
2017-01-12T07:28:43.075Z,20
2017-01-12T07:29:43.066Z,25
2017-01-12T07:30:43.061Z,25
2017-01-12T07:31:43.043Z,25
2017-01-12T07:32:43.024Z,30
2017-01-12T07:33:43.012Z,35
2017-01-12T07:34:43.009Z,40
2017-01-12T07:35:42.982Z,45
2017-01-12T07:36:42.971Z,50
2017-01-12T07:37:42.963Z,50
2017-01-12T07:38:42.951Z,50
2017-01-12T07:39:42.937Z,45
2017-01-12T07:40:42.922Z,45
2017-01-12T07:41:42.916Z,45
2017-01-12T07:42:42.897Z,50
2017-01-12T07:43:42.891Z,55
2017-01-12T07:44:42.879Z,60
2017-01-12T07:45:42.862Z,55
2017-01-12T07:46:42.850Z,50
2017-01-12T07:47:42.839Z,50
2017-01-12T07:48:42.853Z,45
2017-01-12T07:49:42.810Z,40
2017-01-12T07:50:42.800Z,40
2017-01-12T07:51:42.786Z,35
2017-01-12T07:52:42.783Z,40
2017-01-12T07:53:42.770Z,40
2017-01-12T07:54:42.754Z,40
2017-01-12T07:55:42.740Z,45
2017-01-12T07:56:42.727Z,45
2017-01-12T07:57:42.716Z,40
2017-01-12T07:58:42.703Z,45
2017-01-12T07:59:42.693Z,50
2017-01-12T08:00:42.681Z,55
2017-01-12T08:01:42.665Z,55
2017-01-12T08:02:42.658Z,60
2017-01-12T08:03:42.643Z,70
2017-01-12T08:04:42.628Z,70
2017-01-12T08:05:43.013Z,65
2017-01-12T08:06:42.999Z,55
2017-01-12T08:07:42.593Z,50
2017-01-12T08:08:42.591Z,50
2017-01-12T08:09:42.960Z,45
2017-01-12T08:10:42.557Z,50
2017-01-12T08:11:42.939Z,55
2017-01-12T08:12:42.537Z,70
2017-01-12T08:13:42.914Z,70
2017-01-12T08:14:42.514Z,85
2017-01-12T08:15:42.499Z,95
2017-01-12T08:16:42.877Z,100
2017-01-12T08:17:42.477Z,90
2017-01-12T08:18:42.482Z,95
2017-01-12T08:19:42.449Z,100
2017-01-12T08:20:42.825Z,90
2017-01-12T08:21:42.428Z,105
2017-01-12T08:22:42.423Z,115
2017-01-12T08:23:42.404Z,120
2017-01-12T08:24:42.398Z,155
2017-01-12T08:25:42.387Z,155
2017-01-12T08:26:42.366Z,130
2017-01-12T08:27:42.357Z,130
2017-01-12T08:28:42.344Z,125
2017-01-12T08:29:42.330Z,130
2017-01-12T08:30:42.319Z,115
2017-01-12T08:31:42.322Z,110
2017-01-12T08:32:42.303Z,100
2017-01-12T08:33:42.287Z,90
2017-01-12T08:34:42.326Z,85
2017-01-12T08:35:42.264Z,85
2017-01-12T08:36:42.250Z,90
2017-01-12T08:37:42.243Z,95
2017-01-12T08:38:42.233Z,105
2017-01-12T08:39:42.215Z,100
2017-01-12T08:40:42.209Z,110
2017-01-12T08:41:42.196Z,105
2017-01-12T08:42:42.182Z,110
2017-01-12T08:43:42.172Z,120
2017-01-12T08:44:42.160Z,135
2017-01-12T08:45:42.537Z,140
2017-01-12T08:46:42.523Z,145
2017-01-12T08:47:42.130Z,165
2017-01-12T08:48:42.115Z,165
2017-01-12T08:49:42.112Z,180
2017-01-12T08:50:42.091Z,170
2017-01-12T08:51:42.081Z,180
2017-01-12T08:52:42.072Z,180
2017-01-12T08:53:42.061Z,150
2017-01-12T08:54:42.458Z,130
2017-01-12T08:55:42.041Z,115
2017-01-12T08:56:42.026Z,100
2017-01-12T08:57:42.021Z,125
2017-01-12T08:58:42.006Z,155
2017-01-12T08:59:42.002Z,180
2017-01-12T09:00:43.014Z,150
2017-01-12T09:01:41.975Z,115
2017-01-12T09:02:41.970Z,115
2017-01-12T09:03:41.951Z,125
2017-01-12T09:04:41.949Z,130
2017-01-12T09:05:41.927Z,145
2017-01-12T09:06:41.921Z,135
2017-01-12T09:07:41.935Z,130
2017-01-12T09:08:41.905Z,115
2017-01-12T09:09:41.886Z,130
2017-01-12T09:10:41.880Z,145
2017-01-12T09:11:41.873Z,150
2017-01-12T09:12:41.859Z,135
2017-01-12T09:13:42.238Z,120
2017-01-12T09:14:41.835Z,120
2017-01-12T09:15:41.823Z,110
2017-01-12T09:16:41.850Z,105
2017-01-12T09:17:41.808Z,125
2017-01-12T09:18:41.789Z,135
2017-01-12T09:19:41.797Z,145
2017-01-12T09:20:42.153Z,135
2017-01-12T09:21:41.761Z,125
2017-01-12T09:22:41.752Z,125
2017-01-12T09:23:41.740Z,135
2017-01-12T09:24:42.115Z,140
2017-01-12T09:25:41.711Z,145
2017-01-12T09:26:41.705Z,165
2017-01-12T09:27:41.698Z,175
2017-01-12T09:28:41.682Z,170
2017-01-12T09:29:41.674Z,170
2017-01-12T09:30:42.078Z,165
2017-01-12T09:31:42.040Z,155
2017-01-12T09:32:41.648Z,145
2017-01-12T09:33:41.630Z,150
2017-01-12T09:34:41.624Z,160
2017-01-12T09:35:41.621Z,155
2017-01-12T09:36:41.603Z,135
2017-01-12T09:37:41.588Z,140
2017-01-12T09:38:41.579Z,150
2017-01-12T09:39:41.565Z,160
2017-01-12T09:40:41.946Z,155
2017-01-12T09:41:41.545Z,140
2017-01-12T09:42:41.538Z,155
2017-01-12T09:43:41.524Z,160
2017-01-12T09:44:41.525Z,135
2017-01-12T09:45:41.505Z,125
2017-01-12T09:46:41.500Z,115
2017-01-12T09:47:41.486Z,130
2017-01-12T09:48:41.861Z,125
2017-01-12T09:49:41.467Z,135
2017-01-12T09:50:41.459Z,135
2017-01-12T09:51:41.448Z,115
2017-01-12T09:52:41.441Z,100
2017-01-12T09:53:41.424Z,85
2017-01-12T09:54:41.423Z,90
2017-01-12T09:55:41.407Z,100
2017-01-12T09:56:41.395Z,125
2017-01-12T09:57:41.387Z,145
2017-01-12T09:58:41.371Z,140
2017-01-12T09:59:41.361Z,135
2017-01-12T10:00:41.355Z,120
2017-01-12T10:01:41.345Z,130
2017-01-12T10:02:41.331Z,150
2017-01-12T10:03:41.708Z,135
2017-01-12T10:04:41.309Z,125
2017-01-12T10:05:41.299Z,75
2017-01-12T10:06:41.288Z,60
2017-01-12T10:07:41.311Z,60
2017-01-12T10:08:41.269Z,65
2017-01-12T10:09:41.288Z,80
2017-01-12T10:10:41.255Z,80
2017-01-12T10:11:41.233Z,70
2017-01-12T10:12:41.228Z,85
2017-01-12T10:13:41.217Z,95
2017-01-12T10:14:41.203Z,95
2017-01-12T10:15:41.194Z,105
2017-01-12T10:16:41.184Z,110
2017-01-12T10:17:41.179Z,75
2017-01-12T10:18:41.161Z,60
2017-01-12T10:19:41.157Z,70
2017-01-12T10:20:41.138Z,85
2017-01-12T10:21:41.134Z,95
2017-01-12T10:22:41.120Z,150
2017-01-12T10:23:41.491Z,145
2017-01-12T10:24:41.099Z,130
2017-01-12T10:25:41.085Z,145
2017-01-12T10:26:41.076Z,135
2017-01-12T10:27:41.076Z,135
2017-01-12T10:28:41.056Z,150
2017-01-12T10:29:41.046Z,170
2017-01-12T10:30:41.422Z,165
2017-01-12T10:31:41.033Z,170
2017-01-12T10:32:41.013Z,135
2017-01-12T10:33:41.388Z,120
2017-01-12T10:34:41.379Z,95
2017-01-12T10:35:41.366Z,85
2017-01-12T10:36:40.969Z,90
2017-01-12T10:37:40.956Z,110
2017-01-12T10:38:40.948Z,125
2017-01-12T10:39:40.987Z,130
2017-01-12T10:40:40.932Z,125
2017-01-12T10:41:40.925Z,115
2017-01-12T10:42:40.911Z,125
2017-01-12T10:43:40.894Z,130
2017-01-12T10:44:41.275Z,120
2017-01-12T10:45:40.874Z,100
2017-01-12T10:46:40.865Z,95
2017-01-12T10:47:40.853Z,95
2017-01-12T10:48:40.849Z,80
2017-01-12T10:49:40.834Z,70
2017-01-12T10:50:41.214Z,70
2017-01-12T10:51:40.813Z,65
2017-01-12T10:52:40.801Z,60
2017-01-12T10:53:40.795Z,65
2017-01-12T10:54:40.777Z,65
2017-01-12T10:55:40.780Z,75
2017-01-12T10:56:40.759Z,90
2017-01-12T10:57:40.753Z,120
2017-01-12T10:58:40.735Z,130
2017-01-12T10:59:41.121Z,140
2017-01-12T11:00:40.719Z,165
2017-01-12T11:01:40.706Z,165
2017-01-12T11:02:40.695Z,155
2017-01-12T11:03:40.686Z,190
2017-01-12T11:04:40.673Z,195
2017-01-12T11:05:40.668Z,180
2017-01-12T11:06:40.652Z,155
2017-01-12T11:07:40.642Z,160
2017-01-12T11:08:40.635Z,185
2017-01-12T11:09:40.622Z,190
2017-01-12T11:10:40.603Z,185
2017-01-12T11:11:40.602Z,175
2017-01-12T11:12:40.594Z,200
2017-01-12T11:13:40.581Z,215
2017-01-12T11:14:40.568Z,290
2017-01-12T11:15:40.557Z,315
2017-01-12T11:16:40.547Z,290
2017-01-12T11:17:40.536Z,250
2017-01-12T11:18:40.524Z,235
2017-01-12T11:19:40.516Z,240
2017-01-12T11:20:40.505Z,255
2017-01-12T11:21:40.500Z,260
2017-01-12T11:22:40.482Z,250
2017-01-12T11:23:40.473Z,235
2017-01-12T11:24:40.461Z,225
2017-01-12T11:25:40.452Z,215
2017-01-12T11:26:40.450Z,205
2017-01-12T11:27:40.433Z,200
2017-01-12T11:28:40.430Z,210
2017-01-12T11:29:40.415Z,215
2017-01-12T11:30:40.791Z,245
2017-01-12T11:31:40.399Z,260
2017-01-12T11:32:40.393Z,300
2017-01-12T11:33:40.378Z,305
2017-01-12T11:34:40.369Z,280
2017-01-12T11:35:40.356Z,270
2017-01-12T11:36:40.341Z,260
2017-01-12T11:37:40.726Z,260
2017-01-12T11:38:40.324Z,260
2017-01-12T11:39:40.316Z,260
2017-01-12T11:40:40.305Z,255
2017-01-12T11:41:40.301Z,250
2017-01-12T11:42:40.295Z,240
2017-01-12T11:43:40.291Z,230
2017-01-12T11:44:40.268Z,230
2017-01-12T11:45:40.271Z,225
2017-01-12T11:46:40.247Z,230
2017-01-12T11:47:40.241Z,235
2017-01-12T11:48:40.234Z,235
2017-01-12T11:49:40.223Z,230
2017-01-12T11:50:40.213Z,235
2017-01-12T11:51:40.585Z,230
2017-01-12T11:52:40.200Z,235
2017-01-12T11:53:40.190Z,250
2017-01-12T11:54:40.173Z,240
2017-01-12T11:55:40.167Z,235
2017-01-12T11:56:40.159Z,230
2017-01-12T11:57:40.144Z,230
2017-01-12T11:58:40.145Z,225
2017-01-12T11:59:40.426Z,230
2017-01-12T12:00:40.122Z,215
2017-01-12T12:01:40.106Z,210
2017-01-12T12:02:40.094Z,210
2017-01-12T12:03:40.089Z,220
2017-01-12T12:04:40.468Z,215
2017-01-12T12:05:40.070Z,220
2017-01-12T12:06:40.062Z,220
2017-01-12T12:07:40.050Z,215
2017-01-12T12:08:40.044Z,215
2017-01-12T12:09:40.037Z,205
2017-01-12T12:10:40.023Z,205
2017-01-12T12:11:40.011Z,200
2017-01-12T12:12:40.006Z,200
2017-01-12T12:13:39.995Z,200
2017-01-12T12:14:39.988Z,195
2017-01-12T12:15:40.078Z,185
2017-01-12T12:16:39.973Z,175
2017-01-12T12:17:39.958Z,190
2017-01-12T12:18:40.338Z,180
2017-01-12T12:19:39.941Z,180
2017-01-12T12:20:39.929Z,180
2017-01-12T12:21:39.922Z,180
2017-01-12T12:22:39.915Z,170
2017-01-12T12:23:39.907Z,165
2017-01-12T12:24:39.894Z,155
2017-01-12T12:25:39.882Z,155
2017-01-12T12:26:39.876Z,145
2017-01-12T12:27:39.862Z,140
2017-01-12T12:28:39.857Z,135
2017-01-12T12:29:39.846Z,150
2017-01-12T12:30:39.843Z,135
2017-01-12T12:31:39.867Z,140
2017-01-12T12:32:39.821Z,175
2017-01-12T12:33:39.811Z,175
2017-01-12T12:34:39.809Z,160
2017-01-12T12:35:39.826Z,130
2017-01-12T12:36:39.785Z,160
2017-01-12T12:37:39.776Z,175
2017-01-12T12:38:39.767Z,180
2017-01-12T12:39:39.755Z,165
2017-01-12T12:40:39.744Z,170
2017-01-12T12:41:39.738Z,165
2017-01-12T12:42:39.729Z,165
2017-01-12T12:43:40.104Z,160
2017-01-12T12:44:39.707Z,165
2017-01-12T12:45:39.703Z,165
2017-01-12T12:46:39.690Z,135
2017-01-12T12:47:39.681Z,125
2017-01-12T12:48:39.669Z,130
2017-01-12T12:49:39.658Z,160
2017-01-12T12:50:39.650Z,155
2017-01-12T12:51:39.636Z,145
2017-01-12T12:52:39.634Z,135
2017-01-12T12:53:39.622Z,140
2017-01-12T12:54:39.611Z,140
2017-01-12T12:55:39.608Z,145
2017-01-12T12:56:39.593Z,130
2017-01-12T12:57:39.585Z,110
2017-01-12T12:58:39.602Z,125
2017-01-12T12:59:39.953Z,120
2017-01-12T13:00:39.562Z,120
2017-01-12T13:01:39.542Z,130
2017-01-12T13:02:39.540Z,165
2017-01-12T13:03:39.523Z,150
2017-01-12T13:04:39.517Z,140
2017-01-12T13:05:39.505Z,150
2017-01-12T13:06:39.502Z,145
2017-01-12T13:07:39.520Z,140
2017-01-12T13:08:39.864Z,140
2017-01-12T13:09:39.482Z,140
2017-01-12T13:10:39.459Z,135
2017-01-12T13:11:39.447Z,145
2017-01-12T13:12:39.437Z,165
2017-01-12T13:13:39.466Z,150
2017-01-12T13:14:39.422Z,150
2017-01-12T13:15:39.415Z,155
2017-01-12T13:16:39.787Z,135
2017-01-12T13:17:39.388Z,140
2017-01-12T13:18:39.386Z,135
2017-01-12T13:19:39.382Z,125
2017-01-12T13:20:39.365Z,120
2017-01-12T13:21:39.348Z,135
2017-01-12T13:22:39.338Z,155
2017-01-12T13:23:39.716Z,155
2017-01-12T13:24:39.319Z,140
2017-01-12T13:25:39.313Z,115
2017-01-12T13:26:39.300Z,110
2017-01-12T13:27:39.294Z,105
2017-01-12T13:28:39.282Z,115
2017-01-12T13:29:39.269Z,100
2017-01-12T13:30:39.259Z,95
2017-01-12T13:31:39.255Z,100
2017-01-12T13:32:39.244Z,95
2017-01-12T13:33:39.229Z,105
2017-01-12T13:34:39.219Z,115
2017-01-12T13:35:39.599Z,120
2017-01-12T13:36:39.586Z,120
2017-01-12T13:37:39.205Z,110
2017-01-12T13:38:39.185Z,95
2017-01-12T13:39:39.169Z,95
2017-01-12T13:40:39.156Z,100
2017-01-12T13:41:39.151Z,110
2017-01-12T13:42:39.157Z,100
2017-01-12T13:43:39.132Z,95
2017-01-12T13:44:39.124Z,95
2017-01-12T13:45:39.112Z,95
2017-01-12T13:46:39.099Z,95
2017-01-12T13:47:39.092Z,100
2017-01-12T13:48:39.073Z,105
2017-01-12T13:49:39.075Z,110
2017-01-12T13:50:39.055Z,110
2017-01-12T13:51:39.047Z,110
2017-01-12T13:52:39.046Z,115
2017-01-12T13:53:39.053Z,110
2017-01-12T13:54:39.401Z,105
2017-01-12T13:55:39.006Z,105
2017-01-12T13:56:39.381Z,100
2017-01-12T13:57:38.991Z,95
2017-01-12T13:58:38.979Z,90
2017-01-12T13:59:38.977Z,90
2017-01-12T14:00:38.979Z,85
2017-01-12T14:01:38.956Z,85
2017-01-12T14:02:38.939Z,80
2017-01-12T14:03:38.937Z,80
2017-01-12T14:04:38.917Z,75
2017-01-12T14:05:38.902Z,75
2017-01-12T14:06:39.554Z,75
2017-01-12T14:07:38.881Z,70
2017-01-12T14:08:38.871Z,70
2017-01-12T14:09:38.862Z,70
2017-01-12T14:10:38.851Z,70
2017-01-12T14:11:38.841Z,65
2017-01-12T14:12:38.828Z,65
2017-01-12T14:13:38.820Z,65
2017-01-12T14:14:38.811Z,60
2017-01-12T14:15:38.802Z,60
2017-01-12T14:16:38.786Z,60
2017-01-12T14:17:38.799Z,55
2017-01-12T14:18:38.804Z,55
2017-01-12T14:19:38.752Z,55
2017-01-12T14:20:39.138Z,55